Airfield :







YOU CAN JOIN US ON...

 
LOGIN :

Register | Disclaimer

   EN    FR    IT 

 









Legend :    VFR   Marginal VFR   IFR   Intensive IFR   Very Intensive IFR
Visi :
Ceiling :
>= 8 km
>= 3000ft
5 to 8 km
1000 to 3000 ft
1500m to 5 km
500 to 1000 ft
800 to 1500m
200 to 500 ft
< 800m
< 200 ft
Symbols :   Thunderstorms  Fog  Heavy snow  Heavy precipitations  Wind > 20 kt






- Airport Elevation : 288 ft


KLEW - Auburn Lewiston Municipal

CURRENT METAR :
  • 291856Z AUTO 34016G21KT 10SM CLR M01/M13 A2998 RMK AO2 SLP160 T10061133 FZRANO

EXPIRED METARs :
  • 291756Z AUTO 34012G22KT 10SM CLR M01/M12 A2997 RMK AO2 SLP159 T10061117 10000 21078 58006 FZRANO
  • 291656Z AUTO 35015KT 10SM CLR M01/M13 A2997 RMK AO2 SLP160 T10061128 FZRANO

TAF N/A



MET'MAP, your aeronautical weather chart ! - Copyright ORBIFLY December 2007 - Disclaimer

ORBIFLY MET'MAP TEAM :

Programming & Development : Alexandra Zaïnal
Concept & original design : Baudouin d'Aumeries
Assistance for programming : Marc-Olivier Méhu
Technical & hardware support : Manuel Goepfert

Contact : metmap@orbifly.com




SOURCES & CREDITS :

   NOAA